createdAt,value
2022-08-25T00:00:20.032Z,35.08
2022-08-25T00:01:20.033Z,34.98
2022-08-25T00:02:20.103Z,34.98
2022-08-25T00:03:20.033Z,34.98
2022-08-25T00:04:20.034Z,34.98
2022-08-25T00:05:20.131Z,34.88
2022-08-25T00:06:20.043Z,34.88
2022-08-25T00:07:20.037Z,34.88
2022-08-25T00:08:20.038Z,35.27
2022-08-25T00:09:20.036Z,34.97
2022-08-25T00:10:20.038Z,34.87
2022-08-25T00:11:20.041Z,34.98
2022-08-25T00:12:20.040Z,35.08
2022-08-25T00:13:20.052Z,34.79
2022-08-25T00:14:20.041Z,34.79
2022-08-25T00:15:20.041Z,34.79
2022-08-25T00:16:20.118Z,34.98
2022-08-25T00:17:20.044Z,34.98
2022-08-25T00:18:20.161Z,34.98
2022-08-25T00:19:20.041Z,34.98
2022-08-25T00:20:20.059Z,34.88
2022-08-25T00:21:20.044Z,34.88
2022-08-25T00:22:20.045Z,34.97
2022-08-25T00:23:20.045Z,34.87
2022-08-25T00:24:20.047Z,34.88
2022-08-25T00:25:20.045Z,34.98
2022-08-25T00:26:20.048Z,34.98
2022-08-25T00:27:20.048Z,34.98
2022-08-25T00:28:20.051Z,34.69
2022-08-25T00:29:20.049Z,35.06
2022-08-25T00:30:20.052Z,35.06
2022-08-25T00:31:20.125Z,35.08
2022-08-25T00:32:20.051Z,35.27
2022-08-25T00:33:20.050Z,35.27
2022-08-25T00:34:20.053Z,34.97
2022-08-25T00:35:20.059Z,34.87
2022-08-25T00:36:20.051Z,35.08
2022-08-25T00:37:20.060Z,35.47
2022-08-25T00:38:20.053Z,34.98
2022-08-25T00:39:20.054Z,34.98
2022-08-25T00:40:20.144Z,34.97
2022-08-25T00:41:20.055Z,35.25
2022-08-25T00:42:20.056Z,35.27
2022-08-25T00:43:20.058Z,35.17
2022-08-25T00:44:20.070Z,35.27
2022-08-25T00:45:20.071Z,35.08
2022-08-25T00:46:20.106Z,34.98
2022-08-25T00:47:20.058Z,35.17
2022-08-25T00:48:20.061Z,35.35
2022-08-25T00:49:24.668Z,35.37
2022-08-25T00:50:20.060Z,35.17
2022-08-25T00:51:20.065Z,35.16
2022-08-25T00:52:20.061Z,35.16
2022-08-25T00:53:20.064Z,35.45
2022-08-25T00:54:20.061Z,34.98
2022-08-25T00:55:20.064Z,35.08
2022-08-25T00:56:21.663Z,35.25
2022-08-25T00:57:28.970Z,35.55
2022-08-25T00:58:20.064Z,34.97
2022-08-25T00:59:20.066Z,35.37
2022-08-25T01:00:20.066Z,35.25
2022-08-25T01:01:20.137Z,34.98
2022-08-25T01:02:20.111Z,35.25
2022-08-25T01:03:20.067Z,35.25
2022-08-25T01:04:20.067Z,35.37
2022-08-25T01:05:20.070Z,35.76
2022-08-25T01:06:20.069Z,35.06
2022-08-25T01:07:20.069Z,35.35
2022-08-25T01:08:20.076Z,35.16
2022-08-25T01:09:20.072Z,35.55
2022-08-25T01:10:20.070Z,35.57
2022-08-25T01:11:20.073Z,35.84
2022-08-25T01:12:20.071Z,35.57
2022-08-25T01:13:20.074Z,35.64
2022-08-25T01:14:20.073Z,35.35
2022-08-25T01:15:20.075Z,35.37
2022-08-25T01:16:20.125Z,35.74
2022-08-25T01:17:20.076Z,35.76
2022-08-25T01:18:20.074Z,35.64
2022-08-25T01:19:20.075Z,35.45
2022-08-25T01:20:20.076Z,35.25
2022-08-25T01:21:20.078Z,35.35
2022-08-25T01:22:20.079Z,35.45
2022-08-25T01:23:20.079Z,35.57
2022-08-25T01:24:20.078Z,35.45
2022-08-25T01:25:20.079Z,36.13
2022-08-25T01:26:20.080Z,35.86
2022-08-25T01:27:20.081Z,35.76
2022-08-25T01:28:20.080Z,35.94
2022-08-25T01:29:20.081Z,35.94
2022-08-25T01:30:20.087Z,35.64
2022-08-25T01:31:23.422Z,35.74
2022-08-25T01:32:20.081Z,35.74
2022-08-25T01:33:20.083Z,35.74
2022-08-25T01:34:20.085Z,36.04
2022-08-25T01:35:20.084Z,35.55
2022-08-25T01:36:20.085Z,35.55
2022-08-25T01:37:20.086Z,35.74
2022-08-25T01:38:20.084Z,36.04
2022-08-25T01:39:20.086Z,35.74
2022-08-25T01:40:20.153Z,35.84
2022-08-25T01:41:20.088Z,35.84
2022-08-25T01:42:20.087Z,35.94
2022-08-25T01:43:20.088Z,35.94
2022-08-25T01:44:20.087Z,35.84
2022-08-25T01:45:20.092Z,35.84
2022-08-25T01:46:20.140Z,35.84
2022-08-25T01:47:20.090Z,35.84
2022-08-25T01:48:20.091Z,35.94
2022-08-25T01:49:20.093Z,35.84
2022-08-25T01:50:20.091Z,35.84
2022-08-25T01:51:20.094Z,35.74
2022-08-25T01:52:20.093Z,35.84
2022-08-25T01:53:20.095Z,36.13
2022-08-25T01:54:20.093Z,36.13
2022-08-25T01:55:20.096Z,36.13
2022-08-25T01:56:20.095Z,35.84
2022-08-25T01:57:20.096Z,35.84
2022-08-25T01:58:20.094Z,35.74
2022-08-25T01:59:24.293Z,35.64
2022-08-25T02:00:20.097Z,35.64
2022-08-25T02:01:20.151Z,35.94
2022-08-25T02:02:20.120Z,35.94
2022-08-25T02:03:20.180Z,35.74
2022-08-25T02:04:20.099Z,35.74
2022-08-25T02:05:23.380Z,35.84
2022-08-25T02:06:20.100Z,35.74
2022-08-25T02:07:20.102Z,35.84
2022-08-25T02:08:20.101Z,35.94
2022-08-25T02:09:20.102Z,35.74
2022-08-25T02:10:20.116Z,36.13
2022-08-25T02:11:20.104Z,35.84
2022-08-25T02:12:20.106Z,35.84
2022-08-25T02:13:20.111Z,36.32
2022-08-25T02:14:20.104Z,36.22
2022-08-25T02:15:20.106Z,35.84
2022-08-25T02:16:20.141Z,35.64
2022-08-25T02:17:20.108Z,35.64
2022-08-25T02:18:20.106Z,35.94
2022-08-25T02:19:20.109Z,36.04
2022-08-25T02:20:20.107Z,35.64
2022-08-25T02:21:20.109Z,35.84
2022-08-25T02:22:20.109Z,35.84
2022-08-25T02:23:20.109Z,35.94
2022-08-25T02:24:20.111Z,36.04
2022-08-25T02:25:20.113Z,35.94
2022-08-25T02:26:20.111Z,36.32
2022-08-25T02:27:20.112Z,36.13
2022-08-25T02:28:20.111Z,36.42
2022-08-25T02:29:20.114Z,36.13
2022-08-25T02:30:20.130Z,36.22
2022-08-25T02:31:20.114Z,36.13
2022-08-25T02:32:20.116Z,36.04
2022-08-25T02:33:20.117Z,36.13
2022-08-25T02:34:20.115Z,36.04
2022-08-25T02:35:20.117Z,36.13
2022-08-25T02:36:20.117Z,36.13
2022-08-25T02:37:20.120Z,36.13
2022-08-25T02:38:20.117Z,36.04
2022-08-25T02:39:20.120Z,36.22
2022-08-25T02:40:20.190Z,36.13
2022-08-25T02:41:20.119Z,36.13
2022-08-25T02:42:20.119Z,36.22
2022-08-25T02:43:20.121Z,36.13
2022-08-25T02:44:20.120Z,36.13
2022-08-25T02:45:20.121Z,36.13
2022-08-25T02:46:20.245Z,36.04
2022-08-25T02:47:20.123Z,36.81
2022-08-25T02:48:20.123Z,36.32
2022-08-25T02:49:20.124Z,36.32
2022-08-25T02:50:20.122Z,36.22
2022-08-25T02:51:20.125Z,36.04
2022-08-25T02:52:20.126Z,36.04
2022-08-25T02:53:20.125Z,36.42
2022-08-25T02:54:20.124Z,36.13
2022-08-25T02:55:20.127Z,36.13
2022-08-25T02:56:20.127Z,36.71
2022-08-25T02:57:20.129Z,36.71
2022-08-25T02:58:20.128Z,36.71
2022-08-25T02:59:20.129Z,36.61
2022-08-25T03:00:20.129Z,36.32
2022-08-25T03:01:20.285Z,36.61
2022-08-25T03:02:20.130Z,36.71
2022-08-25T03:03:20.130Z,36.32
2022-08-25T03:04:20.131Z,36.71
2022-08-25T03:05:20.134Z,36.52
2022-08-25T03:06:20.131Z,36.71
2022-08-25T03:07:20.132Z,36.04
2022-08-25T03:08:20.133Z,36.32
2022-08-25T03:09:20.135Z,36.13
2022-08-25T03:10:20.134Z,36.52
2022-08-25T03:11:20.135Z,36.71
2022-08-25T03:12:20.135Z,36.81
2022-08-25T03:13:20.136Z,36.71
2022-08-25T03:14:20.135Z,36.71
2022-08-25T03:15:20.140Z,36.61
2022-08-25T03:16:20.304Z,36.32
2022-08-25T03:17:20.140Z,36.32
2022-08-25T03:18:20.137Z,36.42
2022-08-25T03:19:20.139Z,36.42
2022-08-25T03:20:20.139Z,36.71
2022-08-25T03:21:20.140Z,36.61
2022-08-25T03:22:20.140Z,36.52
2022-08-25T03:23:20.140Z,36.61
2022-08-25T03:24:20.140Z,36.32
2022-08-25T03:25:23.985Z,36.61
2022-08-25T03:26:20.142Z,36.42
2022-08-25T03:27:20.142Z,36.52
2022-08-25T03:28:20.142Z,36.42
2022-08-25T03:29:20.144Z,36.52
2022-08-25T03:30:20.150Z,36.42
2022-08-25T03:31:20.196Z,36.61
2022-08-25T03:32:20.144Z,36.42
2022-08-25T03:33:20.147Z,36.52
2022-08-25T03:34:20.144Z,36.52
2022-08-25T03:35:20.148Z,36.61
2022-08-25T03:36:20.147Z,36.61
2022-08-25T03:37:20.148Z,36.42
2022-08-25T03:38:20.148Z,36.52
2022-08-25T03:39:20.149Z,36.42
2022-08-25T03:40:20.167Z,36.42
2022-08-25T03:41:20.150Z,36.42
2022-08-25T03:42:20.153Z,36.52
2022-08-25T03:43:20.150Z,36.32
2022-08-25T03:44:20.151Z,36.42
2022-08-25T03:45:20.151Z,36.32
2022-08-25T03:46:20.214Z,36.52
2022-08-25T03:47:20.154Z,36.22
2022-08-25T03:48:20.153Z,36.42
2022-08-25T03:49:20.156Z,36.52
2022-08-25T03:50:20.154Z,36.32
2022-08-25T03:51:20.156Z,36.13
2022-08-25T03:52:20.154Z,36.52
2022-08-25T03:53:20.158Z,36.42
2022-08-25T03:54:20.155Z,36.13
2022-08-25T03:55:20.157Z,36.42
2022-08-25T03:56:20.157Z,36.32
2022-08-25T03:57:20.159Z,36.22
2022-08-25T03:58:20.157Z,36.22
2022-08-25T03:59:20.159Z,36.32
2022-08-25T04:00:20.160Z,36.71
2022-08-25T04:01:20.296Z,36.91
2022-08-25T04:02:20.251Z,36.32
2022-08-25T04:03:20.160Z,36.42
2022-08-25T04:04:20.164Z,36.61
2022-08-25T04:05:20.164Z,36.32
2022-08-25T04:06:20.160Z,36.61
2022-08-25T04:07:20.162Z,36.52
2022-08-25T04:08:20.164Z,36.61
2022-08-25T04:09:20.164Z,36.13
2022-08-25T04:10:20.164Z,36.13
2022-08-25T04:11:20.165Z,36.42
2022-08-25T04:12:20.167Z,36.81
2022-08-25T04:13:20.166Z,36.71
2022-08-25T04:14:20.167Z,36.52
2022-08-25T04:15:20.167Z,36.61
2022-08-25T04:16:20.240Z,36.42
2022-08-25T04:17:20.169Z,36.91
2022-08-25T04:18:20.168Z,36.22
2022-08-25T04:19:20.170Z,36.71
2022-08-25T04:20:20.169Z,36.42
2022-08-25T04:21:20.172Z,36.42
2022-08-25T04:22:20.173Z,36.22
2022-08-25T04:23:20.172Z,36.81
2022-08-25T04:24:20.171Z,36.61
2022-08-25T04:25:20.173Z,36.81
2022-08-25T04:26:20.170Z,36.81
2022-08-25T04:27:20.173Z,36.52
2022-08-25T04:28:20.173Z,36.91
2022-08-25T04:29:20.174Z,36.61
2022-08-25T04:30:20.174Z,36.71
2022-08-25T04:31:20.228Z,36.71
2022-08-25T04:32:20.175Z,36.81
2022-08-25T04:33:20.177Z,36.71
2022-08-25T04:34:29.876Z,36.61
2022-08-25T04:35:20.177Z,36.91
2022-08-25T04:36:20.176Z,36.91
2022-08-25T04:37:20.179Z,36.91
2022-08-25T04:38:20.177Z,36.52
2022-08-25T04:39:20.179Z,36.71
2022-08-25T04:40:20.246Z,36.81
2022-08-25T04:41:20.181Z,36.32
2022-08-25T04:42:20.180Z,36.52
2022-08-25T04:43:20.181Z,36.42
2022-08-25T04:44:20.182Z,36.52
2022-08-25T04:45:20.182Z,36.61
2022-08-25T04:46:20.806Z,36.81
2022-08-25T04:47:20.182Z,36.81
2022-08-25T04:48:20.184Z,36.61
2022-08-25T04:49:20.185Z,36.61
2022-08-25T04:50:20.185Z,36.52
2022-08-25T04:51:20.184Z,36.52
2022-08-25T04:52:20.186Z,36.61
2022-08-25T04:53:20.186Z,36.52
2022-08-25T04:54:20.186Z,36.52
2022-08-25T04:55:20.188Z,36.32
2022-08-25T04:56:20.187Z,36.81
2022-08-25T04:57:20.187Z,36.32
2022-08-25T04:58:20.189Z,37.01
2022-08-25T04:59:20.187Z,36.61
2022-08-25T05:00:20.189Z,36.91
2022-08-25T05:01:20.247Z,36.42
2022-08-25T05:02:20.191Z,36.52
2022-08-25T05:03:20.190Z,36.61
2022-08-25T05:04:27.897Z,36.61
2022-08-25T05:05:20.191Z,36.81
2022-08-25T05:06:20.193Z,36.81
2022-08-25T05:07:20.193Z,36.91
2022-08-25T05:08:20.194Z,36.22
2022-08-25T05:09:20.193Z,36.13
2022-08-25T05:10:20.196Z,36.42
2022-08-25T05:11:20.193Z,36.52
2022-08-25T05:12:20.196Z,36.52
2022-08-25T05:13:20.197Z,36.81
2022-08-25T05:14:20.198Z,36.32
2022-08-25T05:15:20.196Z,36.91
2022-08-25T05:16:20.293Z,36.32
2022-08-25T05:17:20.197Z,36.71
2022-08-25T05:18:20.198Z,36.32
2022-08-25T05:19:20.199Z,36.22
2022-08-25T05:20:20.199Z,36.52
2022-08-25T05:21:20.201Z,36.61
2022-08-25T05:22:20.201Z,36.61
2022-08-25T05:23:20.201Z,36.91
2022-08-25T05:24:20.204Z,36.71
2022-08-25T05:25:20.201Z,36.61
2022-08-25T05:26:20.595Z,36.71
2022-08-25T05:27:20.203Z,36.52
2022-08-25T05:28:20.204Z,36.81
2022-08-25T05:29:20.204Z,36.81
2022-08-25T05:30:20.205Z,36.52
2022-08-25T05:31:20.257Z,36.71
2022-08-25T05:32:20.207Z,36.91
2022-08-25T05:33:20.209Z,36.81
2022-08-25T05:34:20.206Z,36.42
2022-08-25T05:35:20.214Z,36.52
2022-08-25T05:36:20.208Z,36.61
2022-08-25T05:37:20.208Z,37.01
2022-08-25T05:38:20.211Z,36.81
2022-08-25T05:39:20.210Z,36.52
2022-08-25T05:40:20.301Z,36.71
2022-08-25T05:41:20.211Z,37.01
2022-08-25T05:42:20.211Z,36.71
2022-08-25T05:43:20.211Z,36.81
2022-08-25T05:44:21.332Z,36.52
2022-08-25T05:45:20.665Z,36.81
2022-08-25T05:46:20.276Z,36.91
2022-08-25T05:47:20.213Z,36.81
2022-08-25T05:48:20.214Z,36.81
2022-08-25T05:49:20.213Z,36.61
2022-08-25T05:50:20.215Z,36.81
2022-08-25T05:51:20.215Z,36.61
2022-08-25T05:52:20.396Z,36.81
2022-08-25T05:53:20.216Z,36.81
2022-08-25T05:54:20.217Z,36.81
2022-08-25T05:55:20.220Z,37.01
2022-08-25T05:56:20.219Z,36.81
2022-08-25T05:57:20.219Z,36.71
2022-08-25T05:58:20.219Z,36.81
2022-08-25T05:59:20.220Z,36.71
2022-08-25T06:00:20.221Z,36.61
2022-08-25T06:01:20.329Z,36.91
2022-08-25T06:02:20.223Z,36.71
2022-08-25T06:03:20.282Z,36.71
2022-08-25T06:04:20.223Z,36.61
2022-08-25T06:05:20.222Z,36.71
2022-08-25T06:06:20.223Z,36.71
2022-08-25T06:07:20.225Z,36.81
2022-08-25T06:08:20.226Z,36.91
2022-08-25T06:09:20.225Z,36.71
2022-08-25T06:10:20.226Z,36.71
2022-08-25T06:11:20.225Z,36.61
2022-08-25T06:12:20.230Z,36.71
2022-08-25T06:13:28.036Z,36.81
2022-08-25T06:14:20.228Z,36.61
2022-08-25T06:15:20.228Z,37.01
2022-08-25T06:16:20.305Z,36.91
2022-08-25T06:17:20.228Z,36.91
2022-08-25T06:18:20.231Z,36.71
2022-08-25T06:19:20.230Z,37.10
2022-08-25T06:20:20.230Z,37.01
2022-08-25T06:21:20.233Z,37.10
2022-08-25T06:22:20.238Z,37.01
2022-08-25T06:23:20.231Z,36.91
2022-08-25T06:24:20.234Z,37.01
2022-08-25T06:25:20.234Z,36.71
2022-08-25T06:26:21.072Z,36.81
2022-08-25T06:27:20.237Z,36.81
2022-08-25T06:28:20.238Z,37.01
2022-08-25T06:29:20.235Z,37.10
2022-08-25T06:30:24.368Z,37.01
2022-08-25T06:31:20.275Z,37.39
2022-08-25T06:32:20.239Z,36.71
2022-08-25T06:33:20.239Z,37.01
2022-08-25T06:34:20.239Z,36.71
2022-08-25T06:35:20.238Z,37.10
2022-08-25T06:36:20.242Z,37.20
2022-08-25T06:37:24.612Z,37.10
2022-08-25T06:38:20.241Z,37.01
2022-08-25T06:39:20.241Z,37.20
2022-08-25T06:40:20.291Z,36.91
2022-08-25T06:41:20.242Z,36.91
2022-08-25T06:42:20.242Z,37.01
2022-08-25T06:43:20.242Z,37.20
2022-08-25T06:44:20.244Z,37.49
2022-08-25T06:45:20.244Z,37.01
2022-08-25T06:46:20.321Z,37.39
2022-08-25T06:47:20.312Z,37.30
2022-08-25T06:48:20.246Z,37.49
2022-08-25T06:49:20.247Z,37.30
2022-08-25T06:50:20.248Z,37.10
2022-08-25T06:51:20.247Z,37.49
2022-08-25T06:52:20.249Z,37.10
2022-08-25T06:53:20.250Z,37.10
2022-08-25T06:54:20.250Z,37.30
2022-08-25T06:55:20.249Z,37.10
2022-08-25T06:56:20.250Z,37.20
2022-08-25T06:57:20.251Z,37.10
2022-08-25T06:58:20.253Z,37.30
2022-08-25T06:59:20.251Z,37.30
2022-08-25T07:00:20.257Z,36.91
2022-08-25T07:01:20.526Z,37.01
2022-08-25T07:02:22.032Z,36.71
2022-08-25T07:03:26.697Z,36.91
2022-08-25T07:04:20.255Z,36.81
2022-08-25T07:05:27.365Z,37.10
2022-08-25T07:06:20.256Z,37.10
2022-08-25T07:07:20.255Z,37.01
2022-08-25T07:08:20.259Z,36.61
2022-08-25T07:09:20.257Z,36.71
2022-08-25T07:10:20.261Z,36.71
2022-08-25T07:11:20.258Z,36.71
2022-08-25T07:12:20.258Z,36.81
2022-08-25T07:13:20.258Z,36.81
2022-08-25T07:14:20.259Z,36.71
2022-08-25T07:15:20.982Z,36.71
2022-08-25T07:16:20.379Z,36.61
2022-08-25T07:17:20.261Z,36.81
2022-08-25T07:18:20.263Z,36.61
2022-08-25T07:19:20.262Z,36.81
2022-08-25T07:20:20.310Z,37.01
2022-08-25T07:21:24.789Z,36.71
2022-08-25T07:22:20.264Z,36.52
2022-08-25T07:23:20.263Z,36.71
2022-08-25T07:24:20.265Z,36.71
2022-08-25T07:25:20.265Z,36.91
2022-08-25T07:26:37.164Z,36.91
2022-08-25T07:27:20.265Z,36.71
2022-08-25T07:28:20.267Z,36.71
2022-08-25T07:29:20.266Z,36.71
2022-08-25T07:30:20.273Z,37.20
2022-08-25T07:31:20.298Z,37.20
2022-08-25T07:32:20.270Z,37.10
2022-08-25T07:33:20.272Z,37.10
2022-08-25T07:34:20.270Z,37.39
2022-08-25T07:35:20.269Z,37.39
2022-08-25T07:36:20.271Z,37.30
2022-08-25T07:37:38.367Z,37.30
2022-08-25T07:38:20.897Z,37.39
2022-08-25T07:39:22.173Z,37.20
2022-08-25T07:40:20.329Z,37.49
2022-08-25T07:41:20.273Z,37.49
2022-08-25T07:42:20.274Z,36.71
2022-08-25T07:43:20.273Z,37.10
2022-08-25T07:44:20.277Z,37.10
2022-08-25T07:45:20.856Z,36.91
2022-08-25T07:46:20.332Z,37.10
2022-08-25T07:47:20.276Z,36.91
2022-08-25T07:48:20.281Z,36.91
2022-08-25T07:49:23.278Z,37.10
2022-08-25T07:50:20.277Z,36.91
2022-08-25T07:51:20.350Z,37.30
2022-08-25T07:52:20.280Z,37.10
2022-08-25T07:53:20.279Z,37.30
2022-08-25T07:54:20.280Z,37.30
2022-08-25T07:55:20.280Z,36.91
2022-08-25T07:56:20.285Z,37.49
2022-08-25T07:57:20.283Z,37.49
2022-08-25T07:58:20.281Z,37.39
2022-08-25T07:59:20.282Z,37.68
2022-08-25T08:00:20.283Z,37.49
2022-08-25T08:01:20.359Z,37.59
2022-08-25T08:02:20.334Z,37.49
2022-08-25T08:03:42.305Z,37.49
2022-08-25T08:04:20.285Z,37.49
2022-08-25T08:05:20.285Z,37.49
2022-08-25T08:06:20.286Z,37.49
2022-08-25T08:07:20.298Z,37.68
2022-08-25T08:08:20.288Z,37.49
2022-08-25T08:09:20.287Z,37.59
2022-08-25T08:11:20.287Z,37.68
2022-08-25T08:12:20.290Z,37.68
2022-08-25T08:13:20.456Z,37.39
2022-08-25T08:14:20.291Z,37.20
2022-08-25T08:15:20.290Z,37.20
2022-08-25T08:16:20.368Z,37.01
2022-08-25T08:17:20.290Z,37.10
2022-08-25T08:18:20.292Z,37.20
2022-08-25T08:19:23.030Z,37.30
2022-08-25T08:20:23.344Z,37.20
2022-08-25T08:21:20.293Z,37.01
2022-08-25T08:22:20.293Z,37.10
2022-08-25T08:23:20.292Z,37.10
2022-08-25T08:24:40.853Z,37.10
2022-08-25T08:25:21.603Z,37.20
2022-08-25T08:26:20.596Z,37.20
2022-08-25T08:27:20.296Z,37.30
2022-08-25T08:28:20.297Z,37.20
2022-08-25T08:29:20.295Z,37.01
2022-08-25T08:30:20.297Z,36.91
2022-08-25T08:31:20.345Z,37.01
2022-08-25T08:32:20.298Z,37.20
2022-08-25T08:33:20.316Z,37.39
2022-08-25T08:34:20.300Z,37.01
2022-08-25T08:35:20.299Z,37.20
2022-08-25T08:36:20.301Z,37.10
2022-08-25T08:37:22.965Z,37.20
2022-08-25T08:38:22.154Z,37.20
2022-08-25T08:39:20.300Z,37.10
2022-08-25T08:40:20.461Z,36.91
2022-08-25T08:41:22.908Z,37.10
2022-08-25T08:42:20.767Z,36.91
2022-08-25T08:43:20.301Z,37.10
2022-08-25T08:44:20.304Z,37.20
2022-08-25T08:45:20.304Z,37.30
2022-08-25T08:46:20.374Z,36.91
2022-08-25T08:47:20.462Z,37.20
2022-08-25T08:48:20.306Z,37.20
2022-08-25T08:49:20.305Z,37.10
2022-08-25T08:50:24.901Z,37.10
2022-08-25T08:51:20.308Z,37.10
2022-08-25T08:52:20.307Z,37.10
2022-08-25T08:53:20.305Z,37.01
2022-08-25T08:54:20.308Z,37.10
2022-08-25T08:55:20.308Z,37.30
2022-08-25T08:56:20.308Z,37.10
2022-08-25T08:57:20.308Z,37.20
2022-08-25T08:58:20.309Z,37.30
2022-08-25T08:59:20.308Z,37.39
2022-08-25T09:00:20.310Z,37.30
2022-08-25T09:01:20.379Z,37.30
2022-08-25T09:02:38.509Z,37.20
2022-08-25T09:03:20.335Z,37.39
2022-08-25T09:04:20.311Z,37.20
2022-08-25T09:05:20.311Z,37.49
2022-08-25T09:06:20.314Z,37.39
2022-08-25T09:07:20.802Z,37.30
2022-08-25T09:08:20.708Z,37.10
2022-08-25T09:09:20.314Z,37.30
2022-08-25T09:10:20.312Z,37.39
2022-08-25T09:11:20.316Z,37.30
2022-08-25T09:12:20.318Z,37.30
2022-08-25T09:13:20.321Z,37.39
2022-08-25T09:14:20.313Z,37.20
2022-08-25T09:15:20.316Z,37.30
2022-08-25T09:16:23.348Z,37.30
2022-08-25T09:17:20.318Z,37.39
2022-08-25T09:18:20.317Z,37.39
2022-08-25T09:19:23.568Z,37.30
2022-08-25T09:20:20.317Z,37.18
2022-08-25T09:21:20.319Z,37.20
2022-08-25T09:22:33.462Z,37.10
2022-08-25T09:23:20.466Z,37.28
2022-08-25T09:24:20.320Z,37.30
2022-08-25T09:25:29.386Z,36.89
2022-08-25T09:26:20.320Z,37.30
2022-08-25T09:27:20.323Z,37.30
2022-08-25T09:28:20.320Z,37.30
2022-08-25T09:29:20.330Z,37.47
2022-08-25T09:30:20.365Z,37.68
2022-08-25T09:31:20.396Z,37.59
2022-08-25T09:32:24.035Z,37.49
2022-08-25T09:33:21.190Z,37.49
2022-08-25T09:34:20.324Z,37.37
2022-08-25T09:35:20.325Z,37.49
2022-08-25T09:36:20.324Z,37.49
2022-08-25T09:37:20.340Z,37.49
2022-08-25T09:38:20.326Z,37.39
2022-08-25T09:39:20.325Z,37.28
2022-08-25T09:40:20.378Z,37.30
2022-08-25T09:41:20.326Z,37.76
2022-08-25T09:42:23.837Z,37.47
2022-08-25T09:43:20.327Z,37.88
2022-08-25T09:44:20.328Z,37.59
2022-08-25T09:45:20.329Z,37.59
2022-08-25T09:46:20.787Z,37.78
2022-08-25T09:47:20.331Z,37.98
2022-08-25T09:48:20.329Z,37.98
2022-08-25T09:49:20.331Z,37.49
2022-08-25T09:50:20.330Z,37.49
2022-08-25T09:51:20.331Z,37.68
2022-08-25T09:52:20.330Z,37.30
2022-08-25T09:53:21.733Z,37.68
2022-08-25T09:54:20.331Z,37.30
2022-08-25T09:55:20.333Z,37.20
2022-08-25T09:56:20.333Z,37.30
2022-08-25T09:57:20.333Z,37.49
2022-08-25T09:58:20.334Z,37.49
2022-08-25T09:59:20.337Z,37.39
2022-08-25T10:00:20.335Z,36.91
2022-08-25T10:01:20.710Z,37.49
2022-08-25T10:02:20.333Z,37.10
2022-08-25T10:03:22.775Z,37.01
2022-08-25T10:04:20.910Z,37.20
2022-08-25T10:05:20.385Z,37.49
2022-08-25T10:06:20.338Z,37.30
2022-08-25T10:07:20.338Z,37.30
2022-08-25T10:08:20.338Z,37.49
2022-08-25T10:09:20.339Z,37.39
2022-08-25T10:10:20.338Z,37.30
2022-08-25T10:11:20.340Z,37.10
2022-08-25T10:12:21.042Z,37.30
2022-08-25T10:13:22.969Z,37.01
2022-08-25T10:14:20.339Z,37.30
2022-08-25T10:15:29.112Z,37.10
2022-08-25T10:16:24.605Z,37.10
2022-08-25T10:17:20.342Z,37.10
2022-08-25T10:18:20.341Z,37.10
2022-08-25T10:19:20.343Z,37.30
2022-08-25T10:20:20.353Z,36.91
2022-08-25T10:21:20.345Z,37.39
2022-08-25T10:22:20.345Z,37.39
2022-08-25T10:23:20.344Z,37.39
2022-08-25T10:24:20.345Z,37.30
2022-08-25T10:25:20.347Z,37.30
2022-08-25T10:26:20.345Z,37.30
2022-08-25T10:27:20.346Z,37.10
2022-08-25T10:28:20.349Z,37.01
2022-08-25T10:29:20.349Z,37.30
2022-08-25T10:30:20.347Z,37.39
2022-08-25T10:31:20.386Z,37.30
2022-08-25T10:32:20.359Z,37.39
2022-08-25T10:33:20.353Z,37.10
2022-08-25T10:34:20.349Z,37.10
2022-08-25T10:35:20.352Z,37.30
2022-08-25T10:36:21.358Z,37.20
2022-08-25T10:37:20.352Z,37.39
2022-08-25T10:38:21.741Z,37.30
2022-08-25T10:39:33.838Z,36.71
2022-08-25T10:40:20.375Z,36.61
2022-08-25T10:41:20.354Z,37.01
2022-08-25T10:42:20.353Z,37.39
2022-08-25T10:43:20.355Z,36.61
2022-08-25T10:44:20.357Z,36.91
2022-08-25T10:45:21.901Z,37.10
2022-08-25T10:46:20.411Z,37.20
2022-08-25T10:47:20.358Z,36.71
2022-08-25T10:48:20.358Z,36.81
2022-08-25T10:49:20.360Z,37.01
2022-08-25T10:50:20.357Z,37.01
2022-08-25T10:51:23.696Z,37.20
2022-08-25T10:52:20.361Z,37.30
2022-08-25T10:53:20.370Z,37.39
2022-08-25T10:54:20.360Z,37.30
2022-08-25T10:55:20.362Z,37.20
2022-08-25T10:56:20.361Z,37.30
2022-08-25T10:57:20.364Z,37.10
2022-08-25T10:58:20.362Z,37.10
2022-08-25T10:59:20.363Z,37.30
2022-08-25T11:00:20.363Z,37.30
2022-08-25T11:01:20.448Z,37.20
2022-08-25T11:02:20.364Z,37.20
2022-08-25T11:03:20.366Z,37.10
2022-08-25T11:04:20.367Z,37.10
2022-08-25T11:05:24.705Z,37.30
2022-08-25T11:06:20.365Z,37.30
2022-08-25T11:07:20.368Z,37.30
2022-08-25T11:08:20.368Z,37.30
2022-08-25T11:09:20.370Z,37.32
2022-08-25T11:10:20.368Z,37.20
2022-08-25T11:11:20.370Z,37.30
2022-08-25T11:12:20.379Z,37.30
2022-08-25T11:13:20.373Z,37.32
2022-08-25T11:14:20.370Z,37.30
2022-08-25T11:15:20.373Z,37.30
2022-08-25T11:16:20.379Z,37.32
2022-08-25T11:17:20.401Z,37.41
2022-08-25T11:18:20.373Z,37.32
2022-08-25T11:19:20.379Z,37.12
2022-08-25T11:20:26.786Z,38.56
2022-08-25T11:21:20.377Z,37.88
2022-08-25T11:22:20.375Z,36.93
2022-08-25T11:23:20.379Z,37.32
2022-08-25T11:24:20.377Z,37.41
2022-08-25T11:25:21.549Z,37.32
2022-08-25T11:26:20.377Z,37.90
2022-08-25T11:27:21.593Z,38.29
2022-08-25T11:28:20.379Z,37.22
2022-08-25T11:29:20.384Z,37.41
2022-08-25T11:30:20.380Z,37.80
2022-08-25T11:31:20.381Z,37.12
2022-08-25T11:32:20.381Z,37.12
2022-08-25T11:33:20.384Z,37.32
2022-08-25T11:34:20.382Z,36.73
2022-08-25T11:35:20.384Z,37.02
2022-08-25T11:36:20.384Z,36.83
2022-08-25T11:37:20.385Z,36.83
2022-08-25T11:38:20.858Z,36.73
2022-08-25T11:39:20.387Z,36.73
2022-08-25T11:40:20.419Z,36.73
2022-08-25T11:41:20.388Z,36.73
2022-08-25T11:42:20.389Z,36.73
2022-08-25T11:43:20.391Z,36.63
2022-08-25T11:44:20.388Z,37.51
2022-08-25T11:45:20.392Z,41.59
2022-08-25T11:46:20.451Z,38.57
2022-08-25T11:47:21.564Z,37.51
2022-08-25T11:48:20.394Z,37.14
2022-08-25T11:49:21.833Z,36.73
2022-08-25T11:50:20.398Z,37.52
2022-08-25T11:51:20.396Z,37.32
2022-08-25T11:52:20.395Z,36.83
2022-08-25T11:53:26.545Z,36.65
2022-08-25T11:54:20.396Z,36.83
2022-08-25T11:55:23.180Z,36.36
2022-08-25T11:56:20.399Z,36.46
2022-08-25T11:57:20.400Z,36.55
2022-08-25T11:58:20.398Z,36.55
2022-08-25T11:59:20.400Z,36.55
2022-08-25T12:00:20.401Z,36.36
2022-08-25T12:01:20.403Z,38.50
2022-08-25T12:02:20.402Z,36.94
2022-08-25T12:03:20.403Z,36.46
2022-08-25T12:04:20.428Z,36.36
2022-08-25T12:05:20.492Z,36.46
2022-08-25T12:06:20.405Z,36.55
2022-08-25T12:07:20.406Z,36.85
2022-08-25T12:08:20.406Z,36.26
2022-08-25T12:09:20.409Z,35.97
2022-08-25T12:10:20.409Z,36.26
2022-08-25T12:11:20.410Z,36.16
2022-08-25T12:12:20.411Z,36.16
2022-08-25T12:13:20.414Z,36.07
2022-08-25T12:14:20.418Z,36.16
2022-08-25T12:15:20.422Z,36.16
2022-08-25T12:16:20.436Z,36.16
2022-08-25T12:17:20.416Z,36.36
2022-08-25T12:18:20.415Z,36.26
2022-08-25T12:19:20.417Z,36.28
2022-08-25T12:20:20.418Z,35.97
2022-08-25T12:21:20.419Z,36.26
2022-08-25T12:22:20.419Z,35.88
2022-08-25T12:23:20.422Z,35.78
2022-08-25T12:24:20.420Z,36.38
2022-08-25T12:25:20.424Z,35.68
2022-08-25T12:26:20.422Z,36.28
2022-08-25T12:27:20.426Z,36.08
2022-08-25T12:28:20.426Z,35.89
2022-08-25T12:29:21.578Z,35.89
2022-08-25T12:30:21.016Z,35.68
2022-08-25T12:31:20.513Z,35.70
2022-08-25T12:32:20.429Z,35.80
2022-08-25T12:33:20.431Z,35.80
2022-08-25T12:34:20.430Z,35.89
2022-08-25T12:35:20.434Z,35.89
2022-08-25T12:36:20.434Z,35.50
2022-08-25T12:37:20.447Z,35.99
2022-08-25T12:38:20.433Z,35.70
2022-08-25T12:39:24.497Z,35.70
2022-08-25T12:40:20.486Z,35.60
2022-08-25T12:41:20.438Z,35.89
2022-08-25T12:42:23.283Z,35.60
2022-08-25T12:43:20.442Z,35.50
2022-08-25T12:44:20.441Z,35.60
2022-08-25T12:45:20.449Z,35.50
2022-08-25T12:46:20.577Z,35.21
2022-08-25T12:47:23.496Z,35.31
2022-08-25T12:48:20.445Z,35.89
2022-08-25T12:49:21.008Z,35.89
2022-08-25T12:50:20.447Z,35.80
2022-08-25T12:51:20.448Z,35.60
2022-08-25T12:52:20.450Z,35.41
2022-08-25T12:53:20.451Z,35.60